createdAt,value
2023-02-25T00:00:02.893Z,2.85
2023-02-25T00:05:02.973Z,2.87
2023-02-25T00:10:02.655Z,2.8
2023-02-25T00:15:02.462Z,2.68
2023-02-25T00:20:02.341Z,2.54
2023-02-25T00:25:03.110Z,2.45
2023-02-25T00:30:02.901Z,2.39
2023-02-25T00:35:02.915Z,2.41
2023-02-25T00:40:02.700Z,2.3
2023-02-25T00:45:02.473Z,2.36
2023-02-25T00:50:02.245Z,2.48
2023-02-25T00:55:03.642Z,2.6
2023-02-25T01:00:02.771Z,2.69
2023-02-25T01:05:02.470Z,2.57
2023-02-25T01:10:03.196Z,2.62
2023-02-25T01:15:02.946Z,2.54
2023-02-25T01:20:02.701Z,2.53
2023-02-25T01:25:02.426Z,2.51
2023-02-25T01:30:02.346Z,2.41
2023-02-25T01:35:02.332Z,2.32
2023-02-25T01:40:03.359Z,2.43
2023-02-25T01:45:03.013Z,2.4
2023-02-25T01:50:02.661Z,2.31
2023-02-25T01:55:02.987Z,2.22
2023-02-25T02:00:03.221Z,1.81
2023-02-25T02:05:02.901Z,1.68
2023-02-25T02:10:02.634Z,1.74
2023-02-25T02:15:02.920Z,1.77
2023-02-25T02:20:02.570Z,1.75
2023-02-25T02:25:02.421Z,1.72
2023-02-25T02:30:03.146Z,1.75
2023-02-25T02:35:02.746Z,1.79
2023-02-25T02:40:02.453Z,1.82
2023-02-25T02:45:03.219Z,1.85
2023-02-25T02:50:02.436Z,1.81
2023-02-25T02:55:02.999Z,1.71
2023-02-25T03:00:02.488Z,1.68
2023-02-25T03:05:02.441Z,1.66
2023-02-25T03:10:02.197Z,1.69
2023-02-25T03:15:03.041Z,1.76
2023-02-25T03:20:02.826Z,1.9
2023-02-25T03:25:02.665Z,2.09
2023-02-25T03:30:02.456Z,2.19
2023-02-25T03:35:02.320Z,2.25
2023-02-25T03:40:02.824Z,2.27
2023-02-25T03:45:02.393Z,2.26
2023-02-25T03:50:03.080Z,2.28
2023-02-25T03:55:03.342Z,2.23
2023-02-25T04:00:02.913Z,2.19
2023-02-25T04:05:02.801Z,2.24
2023-02-25T04:10:02.662Z,2.16
2023-02-25T04:15:02.664Z,2.13
2023-02-25T04:20:02.421Z,2.07
2023-02-25T04:25:02.254Z,2.07
2023-02-25T04:30:03.060Z,1.98
2023-02-25T04:35:02.814Z,1.94
2023-02-25T04:40:02.632Z,1.92
2023-02-25T04:45:02.331Z,1.85
2023-02-25T04:50:02.956Z,1.82
2023-02-25T04:55:03.675Z,1.76
2023-02-25T05:00:02.427Z,1.66
2023-02-25T05:05:03.179Z,1.51
2023-02-25T05:10:02.894Z,1.42
2023-02-25T05:15:03.031Z,1.21
2023-02-25T05:20:02.867Z,0.9
2023-02-25T05:25:02.575Z,0.79
2023-02-25T05:30:02.446Z,0.98
2023-02-25T05:35:03.021Z,1.1
2023-02-25T05:40:02.849Z,1.04
2023-02-25T05:45:02.618Z,0.97
2023-02-25T05:50:02.745Z,0.89
2023-02-25T05:55:03.363Z,0.9
2023-02-25T06:00:03.236Z,0.95
2023-02-25T06:05:02.974Z,0.93
2023-02-25T06:10:02.892Z,0.93
2023-02-25T06:15:02.658Z,0.97
2023-02-25T06:20:02.363Z,0.95
2023-02-25T06:25:03.080Z,0.97
2023-02-25T06:30:03.056Z,1.02
2023-02-25T06:35:02.666Z,1.13
2023-02-25T06:40:02.352Z,1.19
2023-02-25T06:45:03.142Z,1.26
2023-02-25T06:50:02.786Z,1.27
2023-02-25T06:55:03.738Z,1.31
2023-02-25T07:00:02.934Z,1.31
2023-02-25T07:05:02.611Z,1.36
2023-02-25T07:10:02.366Z,1.41
2023-02-25T07:15:03.231Z,1.44
2023-02-25T07:20:02.949Z,1.46
2023-02-25T07:25:02.940Z,1.5
2023-02-25T07:30:02.705Z,1.49
2023-02-25T07:35:02.436Z,1.51
2023-02-25T07:40:02.199Z,1.53
2023-02-25T07:45:02.969Z,1.54
2023-02-25T07:50:02.542Z,1.58
2023-02-25T07:55:02.986Z,1.5
2023-02-25T08:00:03.222Z,1.5
2023-02-25T08:05:03.090Z,1.45
2023-02-25T08:10:03.030Z,1.45
2023-02-25T08:15:02.808Z,1.34
2023-02-25T08:20:02.716Z,1.41
2023-02-25T08:25:02.477Z,1.37
2023-02-25T08:30:03.235Z,1.34
2023-02-25T08:35:03.027Z,1.35
2023-02-25T08:40:02.746Z,1.51
2023-02-25T08:45:03.019Z,1.07
2023-02-25T08:50:02.669Z,1.28
2023-02-25T08:55:03.375Z,1.24
2023-02-25T09:00:04.325Z,1.31
2023-02-25T09:05:02.981Z,1.38
2023-02-25T09:10:02.342Z,1.33
2023-02-25T09:15:02.508Z,1.25
2023-02-25T09:20:02.315Z,1.31
2023-02-25T09:25:03.008Z,1.15
2023-02-25T09:30:02.775Z,1.09
2023-02-25T09:35:02.737Z,1.07
2023-02-25T09:40:02.551Z,0.98
2023-02-25T09:45:02.438Z,0.83
2023-02-25T09:50:03.079Z,0.73
2023-02-25T09:55:03.703Z,0.85
2023-02-25T10:00:03.028Z,1.09
2023-02-25T10:05:02.500Z,1.06
2023-02-25T10:10:02.207Z,1.05
2023-02-25T10:15:03.067Z,1.07
2023-02-25T10:20:03.101Z,1.13
2023-02-25T10:25:02.900Z,1.06
2023-02-25T10:30:02.638Z,1.19
2023-02-25T10:35:02.379Z,1.12
2023-02-25T10:40:04.382Z,1.26
2023-02-25T10:45:03.223Z,1.48
2023-02-25T10:50:02.928Z,1.68
2023-02-25T10:55:03.535Z,1.33
2023-02-25T11:00:02.279Z,1.59
2023-02-25T11:05:02.947Z,1.51
2023-02-25T11:10:02.758Z,1.56
2023-02-25T11:15:02.563Z,1.49
2023-02-25T11:20:02.429Z,1.46
2023-02-25T11:25:02.953Z,1.49
2023-02-25T11:30:03.156Z,1.56
2023-02-25T11:35:03.323Z,1.53
2023-02-25T11:40:02.735Z,1.63
2023-02-25T11:45:03.096Z,1.62
2023-02-25T11:50:02.743Z,1.72
2023-02-25T11:55:03.704Z,1.85
2023-02-25T12:00:02.355Z,1.85
2023-02-25T12:05:03.333Z,1.8
2023-02-25T12:10:02.975Z,1.53
2023-02-25T12:15:02.774Z,0.98
2023-02-25T12:20:02.472Z,1.25
2023-02-25T12:25:03.175Z,1.27
2023-02-25T12:30:03.070Z,1.53
2023-02-25T12:35:02.805Z,1.53
2023-02-25T12:40:02.794Z,1.85
2023-02-25T12:45:02.578Z,1.72
2023-02-25T12:50:02.247Z,1.7
2023-02-25T12:55:02.785Z,1.62
2023-02-25T13:00:02.286Z,1.39
2023-02-25T13:05:03.003Z,1.32
2023-02-25T13:10:02.747Z,0.87
2023-02-25T13:15:02.487Z,1.26
2023-02-25T13:20:02.472Z,1.2
2023-02-25T13:25:02.241Z,0.36
2023-02-25T13:30:03.042Z,-0.21
2023-02-25T13:35:02.893Z,0
2023-02-25T13:40:02.734Z,0.35
2023-02-25T13:45:02.511Z,0.44
2023-02-25T13:50:02.186Z,0.74
2023-02-25T13:55:03.574Z,0.99
2023-02-25T14:00:02.669Z,1.06
2023-02-25T14:05:02.315Z,0.83
2023-02-25T14:10:03.023Z,0.17
2023-02-25T14:15:03.149Z,0.02
2023-02-25T14:20:02.835Z,-0.33
2023-02-25T14:25:02.485Z,-0.32
2023-02-25T14:30:02.354Z,-0.04
2023-02-25T14:35:03.008Z,0.23
2023-02-25T14:40:02.816Z,0.51
2023-02-25T14:45:02.534Z,0.85
2023-02-25T14:50:02.258Z,0.97
2023-02-25T14:55:03.938Z,1.14
2023-02-25T15:00:02.900Z,0.97
2023-02-25T15:05:02.437Z,0.89
2023-02-25T15:10:03.146Z,0.78
2023-02-25T15:15:03.021Z,0.68
2023-02-25T15:20:02.955Z,0.63
2023-02-25T15:25:02.501Z,0.61
2023-02-25T15:30:02.377Z,0.62
2023-02-25T15:35:03.162Z,0.62
2023-02-25T15:40:02.784Z,0.12
2023-02-25T15:45:02.630Z,-0.46
2023-02-25T15:50:03.256Z,-0.43
2023-02-25T15:55:03.398Z,-0.38
2023-02-25T16:00:02.340Z,-0.4
2023-02-25T16:05:03.188Z,-0.41
2023-02-25T16:10:02.881Z,-0.37
2023-02-25T16:15:02.832Z,-0.37
2023-02-25T16:20:03.028Z,-0.43
2023-02-25T16:25:02.749Z,-0.49
2023-02-25T16:30:02.621Z,-0.55
2023-02-25T16:35:02.513Z,-0.6
2023-02-25T16:40:02.462Z,-0.65
2023-02-25T16:45:02.347Z,-0.7
2023-02-25T16:50:02.262Z,-0.81
2023-02-25T16:55:03.541Z,-0.87
2023-02-25T17:00:02.675Z,-0.9
2023-02-25T17:05:02.289Z,-0.98
2023-02-25T17:10:03.070Z,-1.06
2023-02-25T17:15:03.335Z,-1.08
2023-02-25T17:20:03.183Z,-1.11
2023-02-25T17:25:02.725Z,-1.1
2023-02-25T17:30:02.440Z,-1.12
2023-02-25T17:35:03.065Z,-1.14
2023-02-25T17:40:02.854Z,-1.11
2023-02-25T17:45:02.587Z,-1.09
2023-02-25T17:50:02.256Z,-1.08
2023-02-25T17:55:03.623Z,-1.08
2023-02-25T18:00:02.708Z,-1.07
2023-02-25T18:05:02.342Z,-1.05
2023-02-25T18:10:02.201Z,-1.04
2023-02-25T18:15:02.986Z,-0.98
2023-02-25T18:20:02.779Z,-0.85
2023-02-25T18:25:02.644Z,-0.82
2023-02-25T18:30:02.628Z,-0.84
2023-02-25T18:35:03.100Z,-0.87
2023-02-25T18:40:03.008Z,-0.83
2023-02-25T18:45:02.782Z,-0.81
2023-02-25T18:50:02.755Z,-0.78
2023-02-25T18:55:03.616Z,-0.82
2023-02-25T19:00:02.654Z,-0.85
2023-02-25T19:05:02.393Z,-0.84
2023-02-25T19:10:02.298Z,-0.85
2023-02-25T19:15:02.741Z,-0.85
2023-02-25T19:20:02.328Z,-0.91
2023-02-25T19:25:03.106Z,-0.94
2023-02-25T19:30:02.880Z,-1.03
2023-02-25T19:35:02.926Z,-1.28
2023-02-25T19:40:02.620Z,-1.37
2023-02-25T19:45:02.284Z,-1.38
2023-02-25T19:50:03.013Z,-1.46
2023-02-25T19:55:03.343Z,-1.49
2023-02-25T20:00:02.854Z,-1.51
2023-02-25T20:05:02.721Z,-1.53
2023-02-25T20:10:02.505Z,-1.54
2023-02-25T20:15:02.301Z,-1.52
2023-02-25T20:20:03.005Z,-1.53
2023-02-25T20:25:03.116Z,-1.51
2023-02-25T20:30:02.722Z,-1.48
2023-02-25T20:35:02.331Z,-1.45
2023-02-25T20:40:03.042Z,-1.47
2023-02-25T20:45:03.109Z,-1.5
2023-02-25T20:50:03.119Z,-1.58
2023-02-25T20:55:07.288Z,-1.67
2023-02-25T21:00:02.837Z,-1.69
2023-02-25T21:05:02.419Z,-1.68
2023-02-25T21:10:02.408Z,-1.65
2023-02-25T21:15:02.304Z,-1.67
2023-02-25T21:20:03.020Z,-1.64
2023-02-25T21:25:02.673Z,-1.64
2023-02-25T21:30:02.802Z,-1.64
2023-02-25T21:35:02.321Z,-1.69
2023-02-25T21:40:03.034Z,-1.68
2023-02-25T21:45:02.262Z,-1.66
2023-02-25T21:50:03.077Z,-1.57
2023-02-25T21:55:03.259Z,-1.53
2023-02-25T22:00:02.873Z,-1.51
2023-02-25T22:05:02.752Z,-1.57
2023-02-25T22:10:02.660Z,-1.67
2023-02-25T22:15:02.461Z,-1.74
2023-02-25T22:20:02.221Z,-1.82
2023-02-25T22:25:02.997Z,-1.89
2023-02-25T22:30:03.069Z,-1.97
2023-02-25T22:35:02.651Z,-2.03
2023-02-25T22:40:02.686Z,-2.04
2023-02-25T22:45:02.466Z,-2.06
2023-02-25T22:50:02.242Z,-2.06
2023-02-25T22:55:03.492Z,-2.08
2023-02-25T23:00:02.855Z,-2.08
2023-02-25T23:05:02.701Z,-2.05
2023-02-25T23:10:02.542Z,-2.05
2023-02-25T23:15:02.474Z,-2.07
2023-02-25T23:20:03.080Z,-2.11
2023-02-25T23:25:02.747Z,-2.15
2023-02-25T23:30:02.754Z,-2.17
2023-02-25T23:35:02.502Z,-2.21
2023-02-25T23:40:02.335Z,-2.19
2023-02-25T23:45:03.155Z,-2.19
2023-02-25T23:50:02.921Z,-2.18
2023-02-25T23:55:03.035Z,-2.16
